createdAt,value
2023-02-27T00:01:03.578Z,63.86
2023-02-27T00:03:34.359Z,63.81
2023-02-27T00:06:05.056Z,63.81
2023-02-27T00:08:35.690Z,63.67
2023-02-27T00:11:08.912Z,63.67
2023-02-27T00:13:40.233Z,63.76
2023-02-27T00:16:12.967Z,63.84
2023-02-27T00:18:43.656Z,63.54
2023-02-27T00:21:14.283Z,63.78
2023-02-27T00:23:44.872Z,63.71
2023-02-27T00:26:18.080Z,63.49
2023-02-27T00:28:48.637Z,63.68
2023-02-27T00:31:19.298Z,63.51
2023-02-27T00:33:50.093Z,63.60
2023-02-27T00:36:20.792Z,63.57
2023-02-27T00:38:51.587Z,63.65
2023-02-27T00:41:25.282Z,63.46
2023-02-27T00:43:55.971Z,63.77
2023-02-27T00:46:26.613Z,63.70
2023-02-27T00:48:57.165Z,63.62
2023-02-27T00:51:28.368Z,63.66
2023-02-27T00:53:59.292Z,63.82
2023-02-27T00:56:32.947Z,63.77
2023-02-27T00:59:03.419Z,63.51
2023-02-27T01:01:34.385Z,63.60
2023-02-27T01:04:05.303Z,63.60
2023-02-27T01:06:36.227Z,63.43
2023-02-27T01:09:07.330Z,63.58
2023-02-27T01:11:40.813Z,63.54
2023-02-27T01:14:11.349Z,63.47
2023-02-27T01:16:42.413Z,63.48
2023-02-27T01:19:12.957Z,63.58
2023-02-27T01:21:43.637Z,63.55
2023-02-27T01:24:14.558Z,63.52
2023-02-27T01:26:47.941Z,63.40
2023-02-27T01:29:18.895Z,63.28
2023-02-27T01:31:49.607Z,63.17
2023-02-27T01:34:20.358Z,63.46
2023-02-27T01:36:51.108Z,63.45
2023-02-27T01:39:21.724Z,63.41
2023-02-27T01:41:55.079Z,63.28
2023-02-27T01:44:25.649Z,63.14
2023-02-27T01:46:56.332Z,63.05
2023-02-27T01:49:30.756Z,63.17
2023-02-27T01:52:06.216Z,63.01
2023-02-27T01:54:40.544Z,63.00
2023-02-27T01:57:13.858Z,62.90
2023-02-27T01:59:45.530Z,62.81
2023-02-27T02:02:23.046Z,62.68
2023-02-27T02:04:54.397Z,62.91
2023-02-27T02:07:25.627Z,62.95
2023-02-27T02:09:59.516Z,62.43
2023-02-27T02:12:41.205Z,62.78
2023-02-27T02:15:13.701Z,62.78
2023-02-27T02:17:54.028Z,62.65
2023-02-27T02:21:06.772Z,62.88
2023-02-27T02:24:15.632Z,63.11
2023-02-27T02:27:01.340Z,63.07
2023-02-27T02:29:48.247Z,63.23
2023-02-27T02:32:52.484Z,63.05
2023-02-27T02:35:59.578Z,63.21
2023-02-27T02:39:00.652Z,63.48
2023-02-27T02:41:43.499Z,63.42
2023-02-27T02:44:26.146Z,63.69
2023-02-27T02:47:08.317Z,64.33
2023-02-27T02:49:46.970Z,64.64
2023-02-27T02:52:26.877Z,64.61
2023-02-27T02:55:06.976Z,65.13
2023-02-27T02:57:43.118Z,65.63
2023-02-27T03:00:20.145Z,65.42
2023-02-27T03:02:56.544Z,65.64
2023-02-27T03:05:30.534Z,65.62
2023-02-27T03:08:07.237Z,65.58
2023-02-27T03:10:46.714Z,65.60
2023-02-27T03:13:22.391Z,65.59
2023-02-27T03:15:58.548Z,65.60
2023-02-27T03:18:35.593Z,66.05
2023-02-27T03:21:11.560Z,65.98
2023-02-27T03:23:45.711Z,66.25
2023-02-27T03:26:22.906Z,66.53
2023-02-27T03:29:02.329Z,66.64
2023-02-27T03:31:40.451Z,66.56
2023-02-27T03:34:20.887Z,66.64
2023-02-27T03:36:57.907Z,66.55
2023-02-27T03:39:37.199Z,66.87
2023-02-27T03:42:17.669Z,66.77
2023-02-27T03:45:13.149Z,66.86
2023-02-27T03:47:44.048Z,66.52
2023-02-27T03:50:15.297Z,66.80
2023-02-27T03:52:47.166Z,66.68
2023-02-27T03:55:20.694Z,66.96
2023-02-27T03:57:55.445Z,66.87
2023-02-27T04:00:28.902Z,67.00
2023-02-27T04:03:02.948Z,67.15
2023-02-27T04:05:35.897Z,67.13
2023-02-27T04:08:23.811Z,67.17
2023-02-27T04:11:02.205Z,67.68
2023-02-27T04:13:59.826Z,67.48
2023-02-27T04:16:55.141Z,67.07
2023-02-27T04:19:42.009Z,67.38
2023-02-27T04:22:28.006Z,67.17
2023-02-27T04:25:09.635Z,67.08
2023-02-27T04:27:43.768Z,67.06
2023-02-27T04:30:28.893Z,67.23
2023-02-27T04:33:07.031Z,66.92
2023-02-27T04:35:42.168Z,66.65
2023-02-27T04:38:18.129Z,67.03
2023-02-27T04:40:53.140Z,66.74
2023-02-27T04:43:25.901Z,66.57
2023-02-27T04:46:02.821Z,65.51
2023-02-27T04:48:40.030Z,63.31
2023-02-27T04:51:15.548Z,59.30
2023-02-27T04:53:51.954Z,57.97
2023-02-27T04:56:28.080Z,57.12
2023-02-27T04:59:01.721Z,57.22
2023-02-27T05:01:41.051Z,55.88
2023-02-27T05:04:15.367Z,55.97
2023-02-27T05:06:49.090Z,56.92
2023-02-27T05:09:28.074Z,57.46
2023-02-27T05:12:03.069Z,58.10
2023-02-27T05:14:40.073Z,57.53
2023-02-27T05:17:19.467Z,57.86
2023-02-27T05:19:50.529Z,59.21
2023-02-27T05:22:32.001Z,59.60
2023-02-27T05:25:12.149Z,60.60
2023-02-27T05:27:49.475Z,61.09
2023-02-27T05:30:25.366Z,62.05
2023-02-27T05:33:03.534Z,63.11
2023-02-27T05:35:40.780Z,63.79
2023-02-27T05:38:15.447Z,64.20
2023-02-27T05:40:50.563Z,64.53
2023-02-27T05:43:25.721Z,64.85
2023-02-27T05:46:01.807Z,65.13
2023-02-27T05:48:38.921Z,65.29
2023-02-27T05:51:11.272Z,65.91
2023-02-27T05:53:46.954Z,66.67
2023-02-27T05:56:22.145Z,66.86
2023-02-27T05:58:58.415Z,67.55
2023-02-27T06:01:29.123Z,67.60
2023-02-27T06:04:02.435Z,67.67
2023-02-27T06:06:34.182Z,68.68
2023-02-27T06:09:05.684Z,68.74
2023-02-27T06:11:36.584Z,68.64
2023-02-27T06:14:07.212Z,69.81
2023-02-27T06:16:39.346Z,69.66
2023-02-27T06:19:12.558Z,70.22
2023-02-27T06:21:43.236Z,70.70
2023-02-27T06:24:13.785Z,71.26
2023-02-27T06:26:44.558Z,71.67
2023-02-27T06:29:15.149Z,71.34
2023-02-27T06:31:45.817Z,71.98
2023-02-27T06:34:19.066Z,72.14
2023-02-27T06:36:49.787Z,72.40
2023-02-27T06:39:20.305Z,72.69
2023-02-27T06:41:50.904Z,73.10
2023-02-27T06:44:21.828Z,73.43
2023-02-27T06:46:52.402Z,73.07
2023-02-27T06:49:25.710Z,72.75
2023-02-27T06:51:56.325Z,72.40
2023-02-27T06:54:26.873Z,72.47
2023-02-27T06:56:57.404Z,72.37
2023-02-27T06:59:28.050Z,72.17
2023-02-27T07:01:59.397Z,71.93
2023-02-27T07:04:32.576Z,71.73
2023-02-27T07:07:35.795Z,70.84
2023-02-27T07:09:53.576Z,69.50
2023-02-27T07:12:23.982Z,69.45
2023-02-27T07:14:54.514Z,69.57
2023-02-27T07:17:25.301Z,69.32
2023-02-27T07:19:58.449Z,69.15
2023-02-27T07:22:29.056Z,69.98
2023-02-27T07:24:59.626Z,69.66
2023-02-27T07:27:30.477Z,69.22
2023-02-27T07:30:01.377Z,69.04
2023-02-27T07:32:34.034Z,69.26
2023-02-27T07:35:07.757Z,68.71
2023-02-27T07:37:38.822Z,68.77
2023-02-27T07:40:10.546Z,68.83
2023-02-27T07:42:41.101Z,68.95
2023-02-27T07:45:12.874Z,69.62
2023-02-27T07:47:43.498Z,69.94
2023-02-27T07:50:17.322Z,69.75
2023-02-27T07:52:48.110Z,69.74
2023-02-27T07:55:18.903Z,69.79
2023-02-27T07:57:49.625Z,70.21
2023-02-27T08:00:21.110Z,70.40
2023-02-27T08:02:51.696Z,70.36
2023-02-27T08:05:24.993Z,70.33
2023-02-27T08:07:55.601Z,70.15
2023-02-27T08:10:26.314Z,70.15
2023-02-27T08:12:57.162Z,70.11
2023-02-27T08:15:27.745Z,70.01
2023-02-27T08:17:58.267Z,69.75
2023-02-27T08:20:32.456Z,70.18
2023-02-27T08:23:03.011Z,70.03
2023-02-27T08:25:33.707Z,69.43
2023-02-27T08:28:04.557Z,69.96
2023-02-27T08:30:35.308Z,70.08
2023-02-27T08:33:06.239Z,70.04
2023-02-27T08:35:39.498Z,69.26
2023-02-27T08:38:10.121Z,69.49
2023-02-27T08:40:40.620Z,69.41
2023-02-27T08:43:11.211Z,69.10
2023-02-27T08:45:41.799Z,68.87
2023-02-27T08:48:14.337Z,68.46
2023-02-27T08:50:48.422Z,68.25
2023-02-27T08:53:18.911Z,68.24
2023-02-27T08:55:53.554Z,68.13
2023-02-27T08:58:24.187Z,68.30
2023-02-27T09:00:54.736Z,67.46
2023-02-27T09:03:28.906Z,67.56
2023-02-27T09:06:02.077Z,67.49
2023-02-27T09:08:32.694Z,67.54
2023-02-27T09:11:03.643Z,67.60
2023-02-27T09:13:34.620Z,67.74
2023-02-27T09:16:05.150Z,67.88
2023-02-27T09:18:35.753Z,68.07
2023-02-27T09:21:09.249Z,67.89
2023-02-27T09:23:39.828Z,68.00
2023-02-27T09:26:10.748Z,68.29
2023-02-27T09:28:42.438Z,68.32
2023-02-27T09:31:14.093Z,68.50
2023-02-27T09:33:44.820Z,68.36
2023-02-27T09:36:18.038Z,68.87
2023-02-27T09:38:48.501Z,69.17
2023-02-27T09:41:41.543Z,69.15
2023-02-27T09:44:33.601Z,69.33
2023-02-27T09:47:18.605Z,69.61
2023-02-27T09:50:02.503Z,69.35
2023-02-27T09:52:40.070Z,69.78
2023-02-27T09:55:20.515Z,69.82
2023-02-27T09:57:57.990Z,69.68
2023-02-27T10:00:38.448Z,70.02
2023-02-27T10:03:21.721Z,70.42
2023-02-27T10:06:02.110Z,70.14
2023-02-27T10:08:43.025Z,70.01
2023-02-27T10:11:18.825Z,69.62
2023-02-27T10:14:01.970Z,69.54
2023-02-27T10:16:35.764Z,69.23
2023-02-27T10:19:09.857Z,69.23
2023-02-27T10:21:47.611Z,68.95
2023-02-27T10:24:28.660Z,68.87
2023-02-27T10:27:02.684Z,68.72
2023-02-27T10:29:36.735Z,68.37
2023-02-27T10:32:13.551Z,68.46
2023-02-27T10:34:46.879Z,68.42
2023-02-27T10:37:21.537Z,68.45
2023-02-27T10:39:58.609Z,68.40
2023-02-27T10:42:34.629Z,68.40
2023-02-27T10:45:05.561Z,68.36
2023-02-27T10:47:39.128Z,68.10
2023-02-27T10:50:24.192Z,68.30
2023-02-27T10:52:56.758Z,68.43
2023-02-27T10:55:32.856Z,68.54
2023-02-27T10:58:06.129Z,68.76
2023-02-27T11:00:44.629Z,68.21
2023-02-27T11:03:24.431Z,68.23
2023-02-27T11:06:00.807Z,68.32
2023-02-27T11:08:34.109Z,68.13
2023-02-27T11:11:09.977Z,67.89
2023-02-27T11:13:42.871Z,67.95
2023-02-27T11:16:17.470Z,67.99
2023-02-27T11:18:49.352Z,68.27
2023-02-27T11:21:26.042Z,68.08
2023-02-27T11:24:03.016Z,68.36
2023-02-27T11:26:38.710Z,68.10
2023-02-27T11:29:11.932Z,68.21
2023-02-27T11:31:43.079Z,68.17
2023-02-27T11:34:22.742Z,67.83
2023-02-27T11:36:56.094Z,67.73
2023-02-27T11:39:34.756Z,67.68
2023-02-27T11:42:26.790Z,67.86
2023-02-27T11:45:00.866Z,67.63
2023-02-27T11:47:36.779Z,67.82
2023-02-27T11:50:32.386Z,67.73
2023-02-27T11:53:17.753Z,67.75
2023-02-27T11:55:50.659Z,67.85
2023-02-27T11:58:27.739Z,67.57
2023-02-27T12:01:04.701Z,67.27
2023-02-27T12:03:43.639Z,67.40
2023-02-27T12:06:20.124Z,67.60
2023-02-27T12:08:56.364Z,67.33
2023-02-27T12:11:32.433Z,67.36
2023-02-27T12:14:13.329Z,67.47
2023-02-27T12:16:50.929Z,67.19
2023-02-27T12:19:25.617Z,67.18
2023-02-27T12:22:00.367Z,67.03
2023-02-27T12:24:34.284Z,67.19
2023-02-27T12:27:13.400Z,67.18
2023-02-27T12:29:52.419Z,67.43
2023-02-27T12:32:28.545Z,67.51
2023-02-27T12:35:05.623Z,67.82
2023-02-27T12:37:37.245Z,67.77
2023-02-27T12:40:10.952Z,67.69
2023-02-27T12:43:05.238Z,67.74
2023-02-27T12:46:03.543Z,67.68
2023-02-27T12:48:58.884Z,67.63
2023-02-27T12:51:44.720Z,67.50
2023-02-27T12:54:27.780Z,67.65
2023-02-27T12:57:09.587Z,67.54
2023-02-27T12:59:55.427Z,67.37
2023-02-27T13:02:48.001Z,67.02
2023-02-27T13:05:44.545Z,67.07
2023-02-27T13:08:38.805Z,67.33
2023-02-27T13:11:18.999Z,67.02
2023-02-27T13:13:53.077Z,67.43
2023-02-27T13:16:25.925Z,67.13
2023-02-27T13:19:04.754Z,67.03
2023-02-27T13:21:40.786Z,66.74
2023-02-27T13:24:27.338Z,66.72
2023-02-27T13:27:03.742Z,67.01
2023-02-27T13:29:41.422Z,67.01
2023-02-27T13:32:41.285Z,67.02
2023-02-27T13:35:28.304Z,66.95
2023-02-27T13:38:02.577Z,67.05
2023-02-27T13:40:37.841Z,66.74
2023-02-27T13:43:24.301Z,66.64
2023-02-27T13:46:00.960Z,66.72
2023-02-27T13:48:56.320Z,66.86
2023-02-27T13:52:00.604Z,67.21
2023-02-27T13:54:36.532Z,67.13
2023-02-27T13:57:22.435Z,67.05
2023-02-27T13:59:59.882Z,67.09
2023-02-27T14:02:58.242Z,66.95
2023-02-27T14:05:35.208Z,66.77
2023-02-27T14:08:17.646Z,66.85
2023-02-27T14:10:58.956Z,67.05
2023-02-27T14:13:59.583Z,67.30
2023-02-27T14:16:57.964Z,67.41
2023-02-27T14:19:59.526Z,67.54
2023-02-27T14:23:11.328Z,66.91
2023-02-27T14:25:49.337Z,66.83
2023-02-27T14:28:28.318Z,67.08
2023-02-27T14:31:04.180Z,67.32
2023-02-27T14:33:43.688Z,67.09
2023-02-27T14:36:20.253Z,66.75
2023-02-27T14:38:51.765Z,66.92
2023-02-27T14:41:38.398Z,67.02
2023-02-27T14:44:09.172Z,66.99
2023-02-27T14:46:41.599Z,66.61
2023-02-27T14:49:22.534Z,66.67
2023-02-27T14:51:53.928Z,67.20
2023-02-27T14:54:26.011Z,67.07
2023-02-27T14:57:01.235Z,67.21
2023-02-27T14:59:34.341Z,67.35
2023-02-27T15:02:06.817Z,67.30
2023-02-27T15:04:37.576Z,67.24
2023-02-27T15:07:08.245Z,67.35
2023-02-27T15:09:43.321Z,67.24
2023-02-27T15:12:21.700Z,67.23
2023-02-27T15:14:55.348Z,66.86
2023-02-27T15:17:28.507Z,67.44
2023-02-27T15:20:01.431Z,67.39
2023-02-27T15:22:39.948Z,67.36
2023-02-27T15:25:29.965Z,65.12
2023-02-27T15:28:05.829Z,66.40
2023-02-27T15:30:36.804Z,70.57
2023-02-27T15:33:07.636Z,78.06
2023-02-27T15:35:40.835Z,80.44
2023-02-27T15:38:27.425Z,79.38
2023-02-27T15:40:59.627Z,81.87
2023-02-27T15:43:33.950Z,81.10
2023-02-27T15:46:04.754Z,81.79
2023-02-27T15:48:36.386Z,83.90
2023-02-27T15:51:07.781Z,87.19
2023-02-27T15:53:41.336Z,85.91
2023-02-27T15:56:16.385Z,84.17
2023-02-27T15:58:54.661Z,83.95
2023-02-27T16:01:29.736Z,84.54
2023-02-27T16:04:02.544Z,89.88
2023-02-27T16:06:35.616Z,87.90
2023-02-27T16:09:08.844Z,86.86
2023-02-27T16:11:40.823Z,87.40
2023-02-27T16:14:45.481Z,95.87
2023-02-27T16:17:35.714Z,94.80
2023-02-27T16:20:32.689Z,90.84
2023-02-27T16:23:07.104Z,91.29
2023-02-27T16:25:37.729Z,91.80
2023-02-27T16:28:08.527Z,92.87
2023-02-27T16:30:41.767Z,98.84
2023-02-27T16:33:23.616Z,98.61
2023-02-27T16:36:08.708Z,95.08
2023-02-27T16:38:39.486Z,95.55
2023-02-27T16:41:12.630Z,99.55
2023-02-27T16:43:43.406Z,97.21
2023-02-27T16:46:20.460Z,94.53
2023-02-27T16:48:56.359Z,94.43
2023-02-27T16:51:28.411Z,100.00
2023-02-27T16:54:00.296Z,98.86
2023-02-27T16:56:38.208Z,95.12
2023-02-27T16:59:09.616Z,94.63
2023-02-27T17:01:43.058Z,100.00
2023-02-27T17:04:24.979Z,100.00
2023-02-27T17:06:57.434Z,96.57
2023-02-27T17:09:29.570Z,94.02
2023-02-27T17:12:01.642Z,99.74
2023-02-27T17:14:34.544Z,100.00
2023-02-27T17:17:08.133Z,97.84
2023-02-27T17:19:38.803Z,95.78
2023-02-27T17:22:09.438Z,96.55
2023-02-27T17:24:40.632Z,100.00
2023-02-27T17:27:11.307Z,100.00
2023-02-27T17:29:42.510Z,96.03
2023-02-27T17:32:15.737Z,100.00
2023-02-27T17:34:46.397Z,100.00
2023-02-27T17:37:17.176Z,98.96
2023-02-27T17:39:47.984Z,95.74
2023-02-27T17:42:19.666Z,95.16
2023-02-27T17:44:50.392Z,100.00
2023-02-27T17:47:23.547Z,100.00
2023-02-27T17:49:54.204Z,98.25
2023-02-27T17:52:24.834Z,96.55
2023-02-27T17:54:55.889Z,96.23
2023-02-27T17:57:26.559Z,100.00
2023-02-27T17:59:57.263Z,100.00
2023-02-27T18:02:31.614Z,100.00
2023-02-27T18:05:02.374Z,100.00
2023-02-27T18:07:34.926Z,98.72
2023-02-27T18:10:05.824Z,95.75
2023-02-27T18:12:36.577Z,98.34
2023-02-27T18:15:10.330Z,100.00
2023-02-27T18:17:45.859Z,99.95
2023-02-27T18:20:17.312Z,96.55
2023-02-27T18:22:48.297Z,100.00
2023-02-27T18:25:20.377Z,100.00
2023-02-27T18:27:51.072Z,99.45
2023-02-27T18:30:22.278Z,96.70
2023-02-27T18:32:59.386Z,100.00
2023-02-27T18:35:30.619Z,100.00
2023-02-27T18:38:02.606Z,99.55
2023-02-27T18:40:33.579Z,95.95
2023-02-27T18:43:05.193Z,98.81
2023-02-27T18:45:36.100Z,100.00
2023-02-27T18:48:10.282Z,99.49
2023-02-27T18:50:42.163Z,99.75
2023-02-27T18:53:13.123Z,95.93
2023-02-27T18:55:43.960Z,92.91
2023-02-27T18:58:14.889Z,91.51
2023-02-27T19:00:46.226Z,99.00
2023-02-27T19:03:19.887Z,97.76
2023-02-27T19:05:51.061Z,93.40
2023-02-27T19:08:24.498Z,96.98
2023-02-27T19:10:55.341Z,96.89
2023-02-27T19:13:26.770Z,93.86
2023-02-27T19:15:57.928Z,91.24
2023-02-27T19:18:31.685Z,96.75
2023-02-27T19:21:06.422Z,97.26
2023-02-27T19:23:37.255Z,94.59
2023-02-27T19:26:08.721Z,92.70
2023-02-27T19:28:39.575Z,94.38
2023-02-27T19:31:11.775Z,97.87
2023-02-27T19:33:45.439Z,96.34
2023-02-27T19:36:18.269Z,92.16
2023-02-27T19:38:49.095Z,91.64
2023-02-27T19:41:24.828Z,99.31
2023-02-27T19:43:56.615Z,97.45
2023-02-27T19:46:30.194Z,98.77
2023-02-27T19:49:09.019Z,96.05
2023-02-27T19:51:41.190Z,92.72
2023-02-27T19:54:15.812Z,91.15
2023-02-27T19:56:46.607Z,97.44
2023-02-27T19:59:18.415Z,98.35
2023-02-27T20:01:49.181Z,94.57
2023-02-27T20:04:23.626Z,91.58
2023-02-27T20:06:54.972Z,94.81
2023-02-27T20:09:27.132Z,97.97
2023-02-27T20:12:01.599Z,94.27
2023-02-27T20:14:33.271Z,92.22
2023-02-27T20:17:04.976Z,96.07
2023-02-27T20:19:39.226Z,98.25
2023-02-27T20:22:10.129Z,94.31
2023-02-27T20:24:41.275Z,92.84
2023-02-27T20:27:12.391Z,94.34
2023-02-27T20:29:43.462Z,98.05
2023-02-27T20:32:14.189Z,95.41
2023-02-27T20:34:48.560Z,98.57
2023-02-27T20:37:19.668Z,97.01
2023-02-27T20:39:52.631Z,94.16
2023-02-27T20:42:23.615Z,92.13
2023-02-27T20:44:54.837Z,92.03
2023-02-27T20:47:26.050Z,95.69
2023-02-27T20:49:59.549Z,99.45
2023-02-27T20:52:30.419Z,98.75
2023-02-27T20:55:01.234Z,99.32
2023-02-27T20:57:34.660Z,96.82
2023-02-27T21:00:06.862Z,94.73
2023-02-27T21:02:37.657Z,93.74
2023-02-27T21:05:11.508Z,100.00
2023-02-27T21:07:42.171Z,99.63
2023-02-27T21:10:14.976Z,100.00
2023-02-27T21:12:45.681Z,97.03
2023-02-27T21:15:16.833Z,89.25
2023-02-27T21:17:47.567Z,86.30
2023-02-27T21:20:21.247Z,88.77
2023-02-27T21:22:51.976Z,92.68
2023-02-27T21:25:22.849Z,95.34
2023-02-27T21:27:53.769Z,94.68
2023-02-27T21:30:24.493Z,95.03
2023-02-27T21:32:55.190Z,100.00
2023-02-27T21:35:28.843Z,100.00
2023-02-27T21:37:59.537Z,100.00
2023-02-27T21:40:30.183Z,100.00
2023-02-27T21:43:00.965Z,100.00
2023-02-27T21:45:31.864Z,100.00
2023-02-27T21:48:03.417Z,100.00
2023-02-27T21:50:37.004Z,100.00
2023-02-27T21:53:07.826Z,100.00
2023-02-27T21:55:38.766Z,100.00
2023-02-27T21:58:10.621Z,100.00
2023-02-27T22:00:41.435Z,99.86
2023-02-27T22:03:12.165Z,94.76
2023-02-27T22:05:47.076Z,87.56
2023-02-27T22:08:17.805Z,86.48
2023-02-27T22:10:48.841Z,87.95
2023-02-27T22:13:19.870Z,87.96
2023-02-27T22:15:51.088Z,91.10
2023-02-27T22:18:22.109Z,100.00
2023-02-27T22:20:55.206Z,100.00
2023-02-27T22:23:26.621Z,100.00
2023-02-27T22:26:04.538Z,100.00
2023-02-27T22:28:36.097Z,100.00
2023-02-27T22:31:11.759Z,100.00
2023-02-27T22:33:43.681Z,100.00
2023-02-27T22:36:18.919Z,100.00
2023-02-27T22:38:49.540Z,100.00
2023-02-27T22:41:21.919Z,99.96
2023-02-27T22:43:53.255Z,99.13
2023-02-27T22:46:28.508Z,98.71
2023-02-27T22:48:59.551Z,98.39
2023-02-27T22:51:33.425Z,97.47
2023-02-27T22:54:05.628Z,96.58
2023-02-27T22:56:37.274Z,96.28
2023-02-27T22:59:08.613Z,95.38
2023-02-27T23:01:40.929Z,95.04
2023-02-27T23:04:12.913Z,94.84
2023-02-27T23:06:47.101Z,94.55
2023-02-27T23:09:19.534Z,94.21
2023-02-27T23:15:00.268Z,94.58
2023-02-27T23:17:33.229Z,97.65
2023-02-27T23:20:04.696Z,95.15
2023-02-27T23:22:37.940Z,96.95
2023-02-27T23:25:10.580Z,94.77
2023-02-27T23:27:42.734Z,96.73
2023-02-27T23:30:15.301Z,96.15
2023-02-27T23:32:46.569Z,97.92
2023-02-27T23:35:22.597Z,96.90
2023-02-27T23:37:57.414Z,97.63
2023-02-27T23:40:30.068Z,97.32
2023-02-27T23:43:00.578Z,95.01
2023-02-27T23:45:31.221Z,97.29
2023-02-27T23:48:03.657Z,96.89
2023-02-27T23:50:37.241Z,95.92
2023-02-27T23:53:11.025Z,94.20
2023-02-27T23:55:41.796Z,93.19
2023-02-27T23:58:13.651Z,99.32
